메인 페이지
METAR-TAF:

METAR-TAF

공항 :

Gazipaşa, 터키

위도: 36-17-56N, 경도: 32-18-00E, 고도: 15m

현재 날씨관측

예보는 54분 전, 09:50시(UTC)에 발표되었습니다.
남남동4kt동남동풍과 남남서풍을 오가는
온도 16°C
습도 68%
기압 1016 hPa
시정 10km 이상
고도 2500ft 상공 구름 조금, 타워링 적운.
고도 3000ft 상공 구름 보통

METAR: LTFG 180950Z 16004KT 110V210 9999 FEW025TCU SCT030 16/10 Q1016

시각: 13:44 (10:44 UTC)

예보

예보는 3 시간 4분 전, 07:40시(UTC)에 발표되었습니다.
예보 대상 시간: 18일 09시부터 18일 18시까지 (UTC)
여러 방향의 바람 2kt
시정 10km 이상
고도 3000ft 상공 구름 조금

TAF: LTFG 180740Z 1809/1818 VRB02KT 9999 FEW030

4,000개 이상의 공항 관측 자료 및 예보 (METAR 및 TAF 보고).

지도상에서 검색 가능한 기상관측소가 노란 점과 빨간 점으로 표시되어 있습니다.

기상관측소 명을 보려면 표시 위로 마우스를 이동하세요.

날씨 관측과 예보를 보려면 클릭하세요.

지도 변경 : 확대하려면 엑스 표시가 있는 녹색 버튼, 축소하려면 빼기 표시가 있는 녹색 버튼, 다음 페이지의 지도를 보려면 녹색 화살표를 클릭하세요.


METAR-TAF: